Time;durP1;ratioP1;P1;durP2;ratioP2;P2;SDS_P1;SDS_P2;PMS_P1;PMS_P2;Temp;Humidity;BMP_temperature;BMP_pressure;BME280_temperature;BME280_humidity;BME280_pressure;Samples;Min_cycle;Max_cycle;Signal;HPM_P1;HPM_P2
2023/04/26 00:00:07;;;;;;;1.38;0.40;;;19.30;58.00;;;;;;4987003;28;20085;-70
2023/04/26 00:02:36;;;;;;;2.45;0.30;;;19.30;57.90;;;;;;4990259;28;20129;-70
2023/04/26 00:05:03;;;;;;;1.40;0.22;;;19.30;57.90;;;;;;4989155;28;20439;-69
2023/04/26 00:07:30;;;;;;;2.47;0.40;;;19.40;57.90;;;;;;4976408;28;20066;-69
2023/04/26 00:09:57;;;;;;;1.95;0.40;;;19.50;57.90;;;;;;4990040;28;20056;-69
2023/04/26 00:12:25;;;;;;;1.65;0.30;;;19.50;57.80;;;;;;4988992;28;20057;-70
2023/04/26 00:14:51;;;;;;;1.67;0.40;;;19.50;57.70;;;;;;4988117;28;20055;-69
2023/04/26 00:17:18;;;;;;;2.25;0.32;;;19.60;57.70;;;;;;4982775;28;20086;-70
2023/04/26 00:19:47;;;;;;;1.77;0.30;;;19.60;57.60;;;;;;4984463;28;20053;-69
2023/04/26 00:22:14;;;;;;;1.70;0.22;;;19.70;57.50;;;;;;4988110;28;20059;-69
2023/04/26 00:24:42;;;;;;;1.88;0.43;;;19.80;57.40;;;;;;4988244;28;20054;-70
2023/04/26 00:27:09;;;;;;;1.30;0.30;;;19.80;57.30;;;;;;4988796;28;20077;-69
2023/04/26 00:29:36;;;;;;;1.80;0.25;;;19.90;57.30;;;;;;4988179;28;20407;-69
2023/04/26 00:32:04;;;;;;;1.35;0.30;;;20.00;57.30;;;;;;4992758;28;20061;-70
2023/04/26 00:34:34;;;;;;;1.60;0.20;;;19.90;57.10;;;;;;4974064;28;20065;-69
2023/04/26 00:37:03;;;;;;;1.92;0.30;;;19.90;57.10;;;;;;4986112;28;20050;-70
2023/04/26 00:39:30;;;;;;;1.88;0.40;;;19.90;57.00;;;;;;4989345;28;20054;-70
2023/04/26 00:41:57;;;;;;;1.70;0.25;;;20.00;57.10;;;;;;4983613;28;20057;-70
2023/04/26 00:44:24;;;;;;;1.52;0.20;;;19.90;57.00;;;;;;4986363;28;20043;-69
2023/04/26 00:46:53;;;;;;;1.45;0.20;;;20.00;57.00;;;;;;4989750;28;20109;-69
2023/04/26 00:49:23;;;;;;;1.02;0.25;;;19.90;57.00;;;;;;4978117;28;20054;-70
2023/04/26 00:51:52;;;;;;;1.70;0.35;;;20.00;57.00;;;;;;4985013;28;20046;-69
2023/04/26 00:54:21;;;;;;;1.95;0.32;;;20.00;57.00;;;;;;4985631;28;20058;-69
2023/04/26 00:56:50;;;;;;;1.75;0.25;;;19.90;56.90;;;;;;4978099;28;20050;-69
2023/04/26 00:59:18;;;;;;;;;;;19.90;56.90;;;;;;4985862;28;20049;-69
2023/04/26 01:01:44;;;;;;;1.30;0.20;;;19.90;56.90;;;;;;4986951;28;20410;-69
2023/04/26 01:04:13;;;;;;;2.42;0.38;;;19.80;56.90;;;;;;4980466;28;20050;-70
2023/04/26 01:06:40;;;;;;;1.83;0.20;;;19.80;57.00;;;;;;4984305;28;20305;-70
2023/04/26 01:09:08;;;;;;;2.28;0.43;;;19.80;57.00;;;;;;4986174;28;20104;-70
2023/04/26 01:11:38;;;;;;;2.15;0.60;;;19.80;57.00;;;;;;4986175;28;20047;-70
2023/04/26 01:14:07;;;;;;;2.60;0.40;;;19.70;57.00;;;;;;4987641;28;20053;-69
2023/04/26 01:16:35;;;;;;;2.55;0.20;;;19.70;57.10;;;;;;4988384;28;20491;-70
2023/04/26 01:19:09;;;;;;;1.55;0.50;;;19.70;57.80;;;;;;4988438;28;20050;-70
2023/04/26 01:21:36;;;;;;;1.40;0.30;;;19.70;57.10;;;;;;4988096;28;20054;-70
2023/04/26 01:24:07;;;;;;;0.98;0.20;;;19.70;57.20;;;;;;4987358;28;20057;-69
2023/04/26 01:26:33;;;;;;;1.60;0.20;;;19.60;57.20;;;;;;4988360;28;20050;-70
2023/04/26 01:29:00;;;;;;;2.33;0.30;;;19.60;57.20;;;;;;4981056;28;20129;-69
2023/04/26 01:31:27;;;;;;;2.50;0.32;;;19.60;57.30;;;;;;4982832;28;20050;-69
2023/04/26 01:33:54;;;;;;;1.20;0.40;;;19.50;57.20;;;;;;4987449;28;20435;-69
2023/04/26 01:36:21;;;;;;;1.88;0.50;;;19.50;57.30;;;;;;4980802;28;20114;-70
2023/04/26 01:38:48;;;;;;;1.90;0.30;;;19.50;57.30;;;;;;4990030;28;20054;-69
2023/04/26 01:41:17;;;;;;;1.20;0.20;;;19.50;57.30;;;;;;4987151;28;20105;-69
2023/04/26 01:43:44;;;;;;;1.13;0.38;;;19.40;57.30;;;;;;4987085;28;20507;-70
2023/04/26 01:46:11;;;;;;;1.90;0.30;;;19.40;57.30;;;;;;4987605;28;20054;-70
2023/04/26 01:48:38;;;;;;;1.40;0.30;;;19.40;57.30;;;;;;4986936;28;20101;-70
2023/04/26 01:51:05;;;;;;;1.88;0.32;;;19.40;57.40;;;;;;4975588;28;20047;-69
2023/04/26 01:53:32;;;;;;;1.58;0.30;;;19.40;57.40;;;;;;4987892;28;20189;-70
2023/04/26 01:56:01;;;;;;;1.00;0.20;;;19.40;57.50;;;;;;4987410;28;20050;-69
2023/04/26 01:58:30;;;;;;;1.88;0.22;;;19.30;57.40;;;;;;4970139;28;20090;-70
2023/04/26 02:00:57;;;;;;;1.30;0.40;;;19.30;57.40;;;;;;4985615;28;20429;-69
2023/04/26 02:03:24;;;;;;;2.10;0.28;;;19.30;57.40;;;;;;4987457;28;20525;-70
2023/04/26 02:05:51;;;;;;;3.17;0.35;;;19.30;57.40;;;;;;4983916;28;20050;-69
2023/04/26 02:08:18;;;;;;;2.25;0.50;;;19.30;57.40;;;;;;4984372;28;20072;-69
2023/04/26 02:10:45;;;;;;;2.08;0.43;;;19.30;57.40;;;;;;4990876;28;20054;-69
2023/04/26 02:13:12;;;;;;;2.38;0.32;;;19.30;57.50;;;;;;4993325;28;20061;-70
2023/04/26 02:15:41;;;;;;;2.45;0.30;;;19.30;57.40;;;;;;4990298;28;20073;-69
2023/04/26 02:18:08;;;;;;;1.52;0.30;;;19.30;57.50;;;;;;4989403;28;20046;-70
2023/04/26 02:20:36;;;;;;;2.20;0.30;;;19.20;57.40;;;;;;4990649;28;20046;-69
2023/04/26 02:23:03;;;;;;;1.83;0.40;;;19.20;57.30;;;;;;4988448;28;20062;-69
2023/04/26 02:25:31;;;;;;;1.35;0.30;;;19.20;57.30;;;;;;4991541;28;20108;-70
2023/04/26 02:27:58;;;;;;;1.30;0.38;;;19.30;57.30;;;;;;4990413;28;20058;-69
2023/04/26 02:30:24;;;;;;;2.25;0.22;;;19.30;57.20;;;;;;4992918;28;20446;-70
2023/04/26 02:32:55;;;;;;;1.02;0.30;;;19.30;57.20;;;;;;4991047;28;20050;-70
2023/04/26 02:35:22;;;;;;;1.70;0.32;;;19.40;57.20;;;;;;4989941;28;20050;-69
2023/04/26 02:37:51;;;;;;;2.50;0.30;;;19.40;57.20;;;;;;4980821;28;20054;-69
2023/04/26 02:40:19;;;;;;;1.13;0.20;;;19.40;57.00;;;;;;4991098;28;20411;-69
2023/04/26 02:42:46;;;;;;;1.15;0.20;;;19.50;57.00;;;;;;4995130;28;20410;-70
2023/04/26 02:45:13;;;;;;;1.80;0.40;;;19.50;56.90;;;;;;4993393;28;20415;-70
2023/04/26 02:47:40;;;;;;;1.25;0.20;;;19.60;56.90;;;;;;4993928;28;20054;-70
2023/04/26 02:50:10;;;;;;;1.00;0.30;;;19.60;56.80;;;;;;4991434;28;20047;-68
2023/04/26 02:52:37;;;;;;;1.75;0.22;;;19.70;56.70;;;;;;4991672;28;20101;-68
2023/04/26 02:55:04;;;;;;;2.13;0.30;;;19.80;56.60;;;;;;4991231;28;20069;-69
2023/04/26 02:57:32;;;;;;;1.27;0.20;;;19.80;56.40;;;;;;4989640;28;20101;-69
2023/04/26 02:59:59;;;;;;;1.13;0.25;;;19.90;56.30;;;;;;4991382;28;20046;-69
2023/04/26 03:02:26;;;;;;;1.45;0.32;;;19.90;56.20;;;;;;4990619;28;20054;-69
2023/04/26 03:04:53;;;;;;;1.83;0.10;;;20.00;56.20;;;;;;4991101;28;20514;-69
2023/04/26 03:07:21;;;;;;;2.03;0.30;;;20.00;56.10;;;;;;4991377;28;20137;-69
2023/04/26 03:09:48;;;;;;;1.83;0.30;;;20.10;56.10;;;;;;4989421;28;20057;-69
2023/04/26 03:12:15;;;;;;;1.45;0.30;;;20.00;56.00;;;;;;4991481;28;20046;-69
2023/04/26 03:14:42;;;;;;;1.30;0.20;;;20.10;56.00;;;;;;4990416;28;20051;-70
2023/04/26 03:17:09;;;;;;;1.83;0.22;;;20.10;56.10;;;;;;4991757;28;20047;-69
2023/04/26 03:19:36;;;;;;;0.93;0.15;;;20.00;56.00;;;;;;4983329;28;20054;-69
2023/04/26 03:22:03;;;;;;;1.38;0.30;;;20.00;56.10;;;;;;4988518;28;20050;-70
2023/04/26 03:24:31;;;;;;;1.90;0.20;;;20.00;56.10;;;;;;4989557;28;20060;-69
2023/04/26 03:26:58;;;;;;;1.50;0.25;;;20.00;56.10;;;;;;4986884;28;20447;-69
2023/04/26 03:29:25;;;;;;;1.38;0.30;;;20.00;56.20;;;;;;4990787;28;20434;-69
2023/04/26 03:31:52;;;;;;;1.88;0.20;;;20.00;56.20;;;;;;4988973;28;20061;-70
2023/04/26 03:34:19;;;;;;;1.55;0.30;;;19.90;56.10;;;;;;4989059;28;20046;-69
2023/04/26 03:36:46;;;;;;;1.20;0.30;;;19.90;56.20;;;;;;4990473;28;20041;-71
2023/04/26 03:39:13;;;;;;;1.40;0.35;;;19.90;56.20;;;;;;4989806;28;20124;-69
2023/04/26 03:41:41;;;;;;;1.30;0.40;;;19.80;56.20;;;;;;4994057;28;20046;-69
2023/04/26 03:44:08;;;;;;;1.10;0.30;;;19.80;56.20;;;;;;4989410;28;20117;-69
2023/04/26 03:46:35;;;;;;;1.27;0.22;;;19.80;56.20;;;;;;4989878;28;20054;-69
2023/04/26 03:49:02;;;;;;;1.55;0.30;;;19.80;56.30;;;;;;4990953;28;20061;-69
2023/04/26 03:51:30;;;;;;;1.05;0.10;;;19.70;56.30;;;;;;4988801;28;20061;-69
2023/04/26 03:53:58;;;;;;;1.75;0.13;;;19.70;56.30;;;;;;4999330;28;20482;-70
2023/04/26 03:56:25;;;;;;;2.13;0.30;;;19.70;56.40;;;;;;4990465;28;20046;-69
2023/04/26 03:58:53;;;;;;;2.25;0.30;;;19.60;56.40;;;;;;4989528;28;20499;-69
2023/04/26 04:01:20;;;;;;;1.85;0.40;;;19.60;56.40;;;;;;4988255;28;20050;-69
2023/04/26 04:03:47;;;;;;;1.10;0.20;;;19.60;56.50;;;;;;4988143;28;20046;-69
2023/04/26 04:06:14;;;;;;;1.58;0.25;;;19.50;56.50;;;;;;4990691;28;20058;-69
2023/04/26 04:08:41;;;;;;;2.83;0.20;;;19.50;56.60;;;;;;4989523;28;20530;-69
2023/04/26 04:11:07;;;;;;;1.25;0.30;;;19.50;56.60;;;;;;4985704;28;20054;-69
2023/04/26 04:13:34;;;;;;;1.08;0.22;;;19.50;56.60;;;;;;4988138;28;20141;-69
2023/04/26 04:16:03;;;;;;;1.35;0.20;;;19.40;56.50;;;;;;4989533;28;20050;-70
2023/04/26 04:18:30;;;;;;;1.10;0.20;;;19.40;56.60;;;;;;4988977;28;20064;-69
2023/04/26 04:20:57;;;;;;;1.83;0.28;;;19.40;56.60;;;;;;4989456;28;20252;-69
2023/04/26 04:23:24;;;;;;;1.52;0.25;;;19.40;56.70;;;;;;4990279;28;20458;-69
2023/04/26 04:25:51;;;;;;;1.95;0.40;;;19.30;56.70;;;;;;4985575;28;20771;-70
2023/04/26 04:28:18;;;;;;;1.45;0.20;;;19.30;56.60;;;;;;4988302;28;20081;-70
2023/04/26 04:30:46;;;;;;;1.48;0.22;;;19.30;56.70;;;;;;4996133;28;20065;-69
2023/04/26 04:33:15;;;;;;;1.42;0.30;;;19.30;56.70;;;;;;4984856;28;20426;-69
2023/04/26 04:35:42;;;;;;;1.88;0.30;;;19.30;56.80;;;;;;4991355;28;20168;-69
2023/04/26 04:38:09;;;;;;;2.17;0.22;;;19.30;56.70;;;;;;4987633;28;20046;-69
2023/04/26 04:40:36;;;;;;;0.80;0.10;;;19.30;56.80;;;;;;4995318;28;20058;-69
2023/04/26 04:43:03;;;;;;;1.38;0.20;;;19.30;56.70;;;;;;4987489;28;20050;-69
2023/04/26 04:45:30;;;;;;;1.40;0.30;;;19.30;56.70;;;;;;4987612;28;20104;-69
2023/04/26 04:47:57;;;;;;;1.77;0.20;;;19.30;56.70;;;;;;4988160;28;20377;-69
2023/04/26 04:50:25;;;;;;;1.48;0.40;;;19.30;56.60;;;;;;4987546;28;20050;-69
2023/04/26 04:52:52;;;;;;;1.13;0.20;;;19.40;56.60;;;;;;4994888;28;20054;-69
2023/04/26 04:55:19;;;;;;;1.17;0.25;;;19.40;56.50;;;;;;4988144;28;20601;-69
2023/04/26 04:57:46;;;;;;;2.15;0.50;;;19.40;56.50;;;;;;4975136;28;20051;-69
2023/04/26 05:00:14;;;;;;;1.30;0.30;;;19.50;56.50;;;;;;4988849;28;20050;-70
2023/04/26 05:02:41;;;;;;;1.83;0.22;;;19.50;56.40;;;;;;4981323;28;20051;-69
2023/04/26 05:05:10;;;;;;;0.93;0.20;;;19.60;56.30;;;;;;4989285;28;20118;-69
2023/04/26 05:07:38;;;;;;;1.25;0.30;;;19.60;56.20;;;;;;4986872;28;20062;-69
2023/04/26 05:10:06;;;;;;;2.67;0.25;;;19.70;56.10;;;;;;4987774;28;20053;-69
2023/04/26 05:12:34;;;;;;;1.85;0.30;;;19.80;56.10;;;;;;4989047;28;20058;-69
2023/04/26 05:15:01;;;;;;;1.88;0.13;;;19.90;56.00;;;;;;4988698;28;20059;-70
2023/04/26 05:17:29;;;;;;;1.80;0.30;;;19.90;55.80;;;;;;4989218;28;20108;-69
2023/04/26 05:19:56;;;;;;;2.25;0.40;;;20.00;55.70;;;;;;4988237;28;20066;-69
2023/04/26 05:22:23;;;;;;;1.27;0.20;;;20.00;55.60;;;;;;4988731;28;20125;-69
2023/04/26 05:24:52;;;;;;;1.27;0.20;;;20.10;55.60;;;;;;4989251;28;20404;-68
2023/04/26 05:27:19;;;;;;;0.80;0.10;;;20.10;55.40;;;;;;4987652;28;20077;-68
2023/04/26 05:29:45;;;;;;;1.05;0.20;;;20.20;55.40;;;;;;4987499;28;20657;-69
2023/04/26 05:32:13;;;;;;;1.00;0.40;;;20.20;55.40;;;;;;4979025;28;20141;-69
2023/04/26 05:34:40;;;;;;;1.40;0.25;;;20.20;55.40;;;;;;4985541;28;20058;-69
2023/04/26 05:37:08;;;;;;;0.88;0.17;;;20.20;55.40;;;;;;4992485;28;20042;-69
2023/04/26 05:39:35;;;;;;;0.80;0.20;;;20.20;55.40;;;;;;4987334;28;20491;-69
2023/04/26 05:42:03;;;;;;;1.30;0.20;;;20.20;55.50;;;;;;4985669;28;20038;-69
2023/04/26 05:44:30;;;;;;;1.90;0.30;;;20.20;56.20;;;;;;4975969;28;20055;-70
2023/04/26 05:46:57;;;;;;;1.48;0.22;;;20.20;55.60;;;;;;4983799;28;20492;-70
2023/04/26 05:49:24;;;;;;;0.95;0.10;;;20.20;55.50;;;;;;4990072;28;20073;-69
2023/04/26 05:51:52;;;;;;;1.38;0.32;;;20.10;55.50;;;;;;4988901;28;20050;-70
2023/04/26 05:54:20;;;;;;;1.80;0.25;;;20.10;55.60;;;;;;4991317;28;20057;-69
2023/04/26 05:56:46;;;;;;;1.48;0.30;;;20.10;55.60;;;;;;4977534;28;20053;-70
2023/04/26 05:59:15;;;;;;;2.47;0.28;;;20.00;55.60;;;;;;4987229;28;20065;-69
2023/04/26 06:01:42;;;;;;;1.25;0.30;;;20.00;55.60;;;;;;4984873;28;20055;-68
2023/04/26 06:04:09;;;;;;;0.80;0.35;;;20.00;55.60;;;;;;4983595;28;20053;-72
2023/04/26 06:06:35;;;;;;;1.35;0.20;;;20.00;55.70;;;;;;4983949;28;20145;-70
2023/04/26 06:09:03;;;;;;;1.27;0.30;;;19.90;55.80;;;;;;4987348;28;20054;-71
2023/04/26 06:11:30;;;;;;;0.85;0.17;;;19.90;56.60;;;;;;5004193;28;20057;-75
2023/04/26 06:13:57;;;;;;;0.73;0.20;;;19.90;56.10;;;;;;4987553;28;20055;-74
2023/04/26 06:16:25;;;;;;;1.83;0.40;;;19.90;56.90;;;;;;4996036;28;20058;-74
2023/04/26 06:18:52;;;;;;;1.95;0.13;;;20.00;56.30;;;;;;4990769;28;20050;-74
2023/04/26 06:21:19;;;;;;;0.80;0.10;;;19.90;56.40;;;;;;4991531;28;20064;-73
2023/04/26 06:23:46;;;;;;;1.30;0.30;;;20.00;57.20;;;;;;4985082;28;20052;-69
2023/04/26 06:26:13;;;;;;;2.22;0.20;;;20.00;56.60;;;;;;4997145;28;20054;-70
2023/04/26 06:28:40;;;;;;;1.40;0.20;;;20.00;56.50;;;;;;4994098;28;20046;-69
2023/04/26 06:31:07;;;;;;;2.30;0.22;;;20.00;56.50;;;;;;4986194;28;20043;-69
2023/04/26 06:33:35;;;;;;;0.70;0.30;;;20.00;56.50;;;;;;4989868;28;20038;-69
2023/04/26 06:36:02;;;;;;;1.13;0.32;;;20.10;56.50;;;;;;4981063;28;20045;-70
2023/04/26 06:38:29;;;;;;;1.33;0.20;;;20.10;56.40;;;;;;4989227;28;20038;-70
2023/04/26 06:40:56;;;;;;;1.23;0.50;;;20.20;56.40;;;;;;4989988;28;20057;-70
2023/04/26 06:43:23;;;;;;;1.27;0.20;;;20.20;56.20;;;;;;4979442;28;20522;-69
2023/04/26 06:45:50;;;;;;;1.13;0.30;;;20.20;56.10;;;;;;4990504;28;20050;-70
2023/04/26 06:48:17;;;;;;;2.08;0.40;;;20.20;56.00;;;;;;4988559;28;20054;-69
2023/04/26 06:50:45;;;;;;;1.30;0.30;;;20.30;56.00;;;;;;4987709;28;20058;-69
2023/04/26 06:53:12;;;;;;;1.02;0.10;;;20.30;55.90;;;;;;4984356;28;20058;-69
2023/04/26 06:55:39;;;;;;;2.70;0.30;;;20.20;55.70;;;;;;4978316;28;20054;-70
2023/04/26 06:58:06;;;;;;;1.20;0.10;;;20.30;55.70;;;;;;4989292;28;20049;-70
2023/04/26 07:00:33;;;;;;;2.47;0.40;;;20.20;55.50;;;;;;4991051;28;20046;-69
2023/04/26 07:03:00;;;;;;;1.73;0.50;;;20.20;55.50;;;;;;4986486;28;20057;-70
2023/04/26 07:05:27;;;;;;;2.00;0.35;;;20.20;55.50;;;;;;4988496;28;20053;-70
2023/04/26 07:07:55;;;;;;;1.20;0.20;;;20.20;55.50;;;;;;4983087;28;20058;-70
2023/04/26 07:10:22;;;;;;;3.20;0.90;;;20.10;55.40;;;;;;4982550;28;20062;-69
2023/04/26 07:12:50;;;;;;;1.35;0.30;;;20.10;55.50;;;;;;4986618;28;20046;-70
2023/04/26 07:15:17;;;;;;;1.25;0.40;;;20.00;55.50;;;;;;4988020;28;20100;-70
2023/04/26 07:17:44;;;;;;;1.15;0.30;;;20.00;55.50;;;;;;4989698;28;20054;-70
2023/04/26 07:20:14;;;;;;;1.52;0.38;;;20.00;55.50;;;;;;4989584;28;20054;-70
2023/04/26 07:22:41;;;;;;;1.33;0.22;;;19.90;55.50;;;;;;4989734;28;20053;-70
2023/04/26 07:25:10;;;;;;;1.27;0.32;;;19.90;55.50;;;;;;4989532;28;20042;-69
2023/04/26 07:27:37;;;;;;;1.40;0.63;;;20.00;55.60;;;;;;4987836;28;20463;-70
2023/04/26 07:30:05;;;;;;;2.22;0.60;;;19.90;55.50;;;;;;4986215;28;20051;-70
2023/04/26 07:32:32;;;;;;;2.10;0.10;;;20.00;55.50;;;;;;4982200;28;20050;-70
2023/04/26 07:34:59;;;;;;;0.70;0.20;;;19.90;55.40;;;;;;4990484;28;20658;-70
2023/04/26 07:37:25;;;;;;;1.23;0.17;;;20.00;55.40;;;;;;4984259;28;20594;-70
2023/04/26 07:39:52;;;;;;;1.15;0.20;;;20.00;55.30;;;;;;4988309;28;20054;-70
2023/04/26 07:42:21;;;;;;;2.13;0.30;;;20.00;55.30;;;;;;4987652;28;20050;-70
2023/04/26 07:44:48;;;;;;;1.48;0.28;;;20.00;55.20;;;;;;4988484;28;20174;-70
2023/04/26 07:47:15;;;;;;;1.25;0.20;;;20.00;55.20;;;;;;4990385;28;20058;-71
2023/04/26 07:49:42;;;;;;;1.45;0.30;;;20.00;55.20;;;;;;4990543;28;20063;-70
2023/04/26 07:52:09;;;;;;;1.45;0.45;;;20.00;55.10;;;;;;4986956;28;22027;-70
2023/04/26 07:54:37;;;;;;;1.05;0.20;;;20.00;55.10;;;;;;4984763;28;20420;-70
2023/04/26 07:57:04;;;;;;;2.55;0.52;;;20.00;55.10;;;;;;4987749;28;20046;-70
2023/04/26 07:59:32;;;;;;;1.45;0.30;;;20.10;55.20;;;;;;4993175;28;20052;-69
2023/04/26 08:02:00;;;;;;;1.48;0.32;;;20.00;55.10;;;;;;4992592;28;20047;-70
2023/04/26 08:04:33;;;;;;;1.33;0.38;;;20.00;55.10;;;;;;4985188;28;20085;-69
2023/04/26 08:07:00;;;;;;;2.50;0.40;;;20.00;55.10;;;;;;4983956;28;20057;-69
2023/04/26 08:09:27;;;;;;;2.40;0.52;;;20.00;55.20;;;;;;4986593;28;20063;-70
2023/04/26 08:11:54;;;;;;;1.33;0.17;;;19.90;55.20;;;;;;4987548;28;20053;-70
2023/04/26 08:14:21;;;;;;;1.83;0.68;;;19.90;55.20;;;;;;4987480;28;20466;-69
2023/04/26 08:16:50;;;;;;;2.03;0.25;;;19.90;55.20;;;;;;4978777;28;20507;-69
2023/04/26 08:19:17;;;;;;;2.05;0.40;;;19.90;55.30;;;;;;4984731;28;20112;-70
2023/04/26 08:21:44;;;;;;;1.73;0.40;;;19.80;55.30;;;;;;4977342;28;20096;-70
2023/04/26 08:24:11;;;;;;;1.75;0.30;;;19.80;55.30;;;;;;4988300;28;20496;-70
2023/04/26 08:26:38;;;;;;;2.20;0.20;;;19.80;55.30;;;;;;4993532;28;20050;-70
2023/04/26 08:29:05;;;;;;;2.40;0.73;;;19.80;55.40;;;;;;4984050;28;20056;-70
2023/04/26 08:31:32;;;;;;;1.45;0.20;;;19.70;55.30;;;;;;4985055;28;20068;-70
2023/04/26 08:34:00;;;;;;;2.08;0.30;;;19.80;55.40;;;;;;4989477;28;20510;-69
2023/04/26 08:36:27;;;;;;;1.35;0.30;;;19.70;55.30;;;;;;4986599;28;20506;-70
2023/04/26 08:38:56;;;;;;;1.17;0.25;;;19.80;55.40;;;;;;4987871;28;20123;-70
2023/04/26 08:41:24;;;;;;;1.05;0.22;;;19.70;55.30;;;;;;4987223;28;20549;-70
2023/04/26 08:43:51;;;;;;;1.20;0.20;;;19.70;55.30;;;;;;4988121;28;20046;-70
2023/04/26 08:46:20;;;;;;;1.27;0.22;;;19.80;55.40;;;;;;4984837;28;20054;-70
2023/04/26 08:48:54;;;;;;;1.80;0.30;;;19.80;55.40;;;;;;4986249;28;20093;-69
2023/04/26 08:51:23;;;;;;;1.05;0.20;;;19.80;55.40;;;;;;4989384;28;20495;-69
2023/04/26 08:53:52;;;;;;;1.00;0.25;;;19.70;55.30;;;;;;4986466;28;20050;-69
2023/04/26 08:56:22;;;;;;;1.50;0.40;;;19.70;55.30;;;;;;4988301;28;20050;-69
2023/04/26 08:58:50;;;;;;;1.05;0.20;;;19.70;55.30;;;;;;4988795;28;20053;-69
2023/04/26 09:01:18;;;;;;;1.10;0.20;;;19.70;55.30;;;;;;4980261;28;20051;-70
2023/04/26 09:03:45;;;;;;;1.15;0.30;;;19.70;55.30;;;;;;4982855;28;20069;-70
2023/04/26 09:06:13;;;;;;;1.20;0.20;;;19.70;55.30;;;;;;4982103;28;20113;-70
2023/04/26 09:08:42;;;;;;;1.23;0.40;;;19.70;55.30;;;;;;4988344;28;20054;-69
2023/04/26 09:11:09;;;;;;;1.20;0.30;;;19.70;55.30;;;;;;4981481;28;20523;-69
2023/04/26 09:13:36;;;;;;;1.17;0.30;;;19.70;55.30;;;;;;4988079;28;20038;-70
2023/04/26 09:16:03;;;;;;;1.10;0.30;;;19.70;55.30;;;;;;4984440;28;20416;-70
2023/04/26 09:18:32;;;;;;;1.10;0.20;;;19.70;55.30;;;;;;4992166;28;20053;-69
2023/04/26 09:21:04;;;;;;;0.85;0.20;;;19.60;55.30;;;;;;4987319;28;20050;-69
2023/04/26 09:23:32;;;;;;;2.35;0.35;;;19.60;55.30;;;;;;4973668;28;20076;-70
2023/04/26 09:26:19;;;;;;;1.52;0.22;;;19.60;55.30;;;;;;4977495;28;20049;-70
2023/04/26 09:28:46;;;;;;;2.72;0.50;;;19.60;55.50;;;;;;4980211;28;20058;-70
2023/04/26 09:31:37;;;;;;;2.25;0.30;;;19.60;56.10;;;;;;4985382;28;20065;-70
2023/04/26 09:34:03;;;;;;;1.00;0.43;;;19.60;55.40;;;;;;4986326;28;20073;-70
2023/04/26 09:36:31;;;;;;;1.10;0.10;;;19.60;55.40;;;;;;4987690;28;20537;-69
2023/04/26 09:38:58;;;;;;;1.83;0.40;;;19.60;55.40;;;;;;4986550;28;20570;-70
2023/04/26 09:41:42;;;;;;;1.65;0.40;;;19.60;55.40;;;;;;4987402;28;20054;-69
2023/04/26 09:44:22;;;;;;;1.95;0.40;;;19.60;55.50;;;;;;4975760;28;20043;-70
2023/04/26 09:46:59;;;;;;;0.90;0.25;;;19.60;55.50;;;;;;4982462;28;20101;-69
2023/04/26 09:49:26;;;;;;;1.08;0.35;;;19.60;55.40;;;;;;4981317;28;20587;-70
2023/04/26 09:52:01;;;;;;;1.40;0.22;;;19.60;55.40;;;;;;4980699;28;20043;-69
2023/04/26 09:54:39;;;;;;;1.40;0.40;;;19.70;55.40;;;;;;4987905;28;20065;-70
2023/04/26 09:57:08;;;;;;;2.15;0.40;;;19.70;55.40;;;;;;4980004;28;20142;-69
2023/04/26 09:59:42;;;;;;;1.55;0.30;;;19.70;55.30;;;;;;4987092;28;20061;-70
2023/04/26 10:02:14;;;;;;;1.13;0.20;;;19.80;55.30;;;;;;4987587;28;20125;-70
2023/04/26 10:04:44;;;;;;;1.30;0.20;;;19.90;55.20;;;;;;4985839;28;20108;-69
2023/04/26 10:07:12;;;;;;;1.55;0.30;;;19.90;55.10;;;;;;4980125;28;20063;-70
2023/04/26 10:09:40;;;;;;;1.13;0.45;;;20.00;55.10;;;;;;4983986;28;20062;-70
2023/04/26 10:12:10;;;;;;;1.48;0.25;;;20.10;55.70;;;;;;4980891;28;20590;-70
2023/04/26 10:18:46;;;;;;;2.65;0.17;;;20.30;54.90;;;;;;4900966;28;20055;-73
2023/04/26 10:24:49;;;;;;;1.80;0.32;;;20.40;54.80;;;;;;4966872;28;20070;-73
2023/04/26 10:27:47;;;;;;;1.80;0.40;;;20.40;54.80;;;;;;4978063;28;20061;-73
2023/04/26 10:30:15;;;;;;;1.38;0.38;;;20.50;55.00;;;;;;4987136;28;20050;-72
2023/04/26 10:33:12;;;;;;;1.02;0.20;;;20.50;54.90;;;;;;4990850;28;20657;-71
2023/04/26 10:36:09;;;;;;;1.17;0.30;;;20.50;55.00;;;;;;4998833;28;20056;-75
2023/04/26 10:38:38;;;;;;;1.05;0.13;;;20.50;55.00;;;;;;4984795;28;20047;-74
2023/04/26 10:41:33;;;;;;;1.38;0.50;;;20.50;55.00;;;;;;4989568;28;20043;-72
2023/04/26 10:44:38;;;;;;;1.98;0.20;;;20.50;55.10;;;;;;4989528;28;20097;-72
2023/04/26 10:47:06;;;;;;;1.00;0.30;;;20.50;55.10;;;;;;4988519;28;20058;-76
2023/04/26 10:49:45;;;;;;;1.40;0.40;;;20.50;55.10;;;;;;4988196;28;20405;-76
2023/04/26 10:52:13;;;;;;;1.77;0.30;;;20.50;55.20;;;;;;4989363;28;20587;-75
2023/04/26 10:54:55;;;;;;;0.80;0.28;;;20.60;55.20;;;;;;4988564;28;20097;-75
2023/04/26 10:57:23;;;;;;;1.27;0.22;;;20.60;55.20;;;;;;4987727;28;20133;-75
2023/04/26 11:00:17;;;;;;;1.42;0.20;;;20.50;55.20;;;;;;4990579;28;20081;-75
2023/04/26 11:02:44;;;;;;;;;;;20.50;55.30;;;;;;4979185;28;20058;-74
2023/04/26 11:05:12;;;;;;;1.38;0.20;;;20.50;55.40;;;;;;4989321;28;20407;-74
2023/04/26 11:07:39;;;;;;;0.95;0.22;;;20.50;55.30;;;;;;4988399;28;20093;-74
2023/04/26 11:10:09;;;;;;;1.00;0.10;;;20.50;55.40;;;;;;4987439;28;20508;-71
2023/04/26 11:12:36;;;;;;;;;;;20.40;55.40;;;;;;4982388;28;20507;-71
2023/04/26 11:15:03;;;;;;;1.40;0.25;;;20.40;55.50;;;;;;4988224;28;19941;-75
2023/04/26 11:17:37;;;;;;;1.33;0.20;;;20.40;55.60;;;;;;4990982;28;20057;-74
2023/04/26 11:20:08;;;;;;;1.13;0.25;;;20.30;56.30;;;;;;4999609;28;20046;-76
2023/04/26 11:22:40;;;;;;;1.23;0.40;;;20.30;55.60;;;;;;4988784;28;20054;-75
2023/04/26 11:25:08;;;;;;;1.35;0.30;;;20.30;55.70;;;;;;4989646;28;20121;-70
2023/04/26 11:27:35;;;;;;;1.30;0.30;;;20.30;55.90;;;;;;4984223;28;20043;-71
2023/04/26 11:30:03;;;;;;;1.55;0.28;;;20.30;55.90;;;;;;4989895;28;20055;-70
2023/04/26 11:32:30;;;;;;;0.90;0.20;;;20.20;56.50;;;;;;4989025;28;20046;-69
2023/04/26 11:35:00;;;;;;;1.20;0.20;;;20.20;55.90;;;;;;4987588;28;20054;-71
2023/04/26 11:37:27;;;;;;;0.90;0.20;;;20.20;55.90;;;;;;4985099;28;20087;-71
2023/04/26 11:39:54;;;;;;;1.25;0.20;;;20.20;56.00;;;;;;4990584;28;20042;-70
2023/04/26 11:42:25;;;;;;;1.27;0.30;;;20.20;56.00;;;;;;4988006;28;20050;-70
2023/04/26 11:44:55;;;;;;;1.50;0.28;;;20.20;56.10;;;;;;4990171;28;20054;-70
2023/04/26 11:47:22;;;;;;;1.08;0.30;;;20.10;56.10;;;;;;4989337;28;20054;-70
2023/04/26 11:49:49;;;;;;;2.28;0.17;;;20.10;56.10;;;;;;4985653;28;20575;-70
2023/04/26 11:52:18;;;;;;;1.30;0.30;;;20.10;56.20;;;;;;4996942;28;20093;-70
2023/04/26 11:54:45;;;;;;;0.88;0.20;;;20.10;56.20;;;;;;4987932;28;20054;-70
2023/04/26 11:57:16;;;;;;;1.38;0.30;;;20.10;56.30;;;;;;4990049;28;20054;-71
2023/04/26 11:59:43;;;;;;;1.13;0.20;;;20.00;56.30;;;;;;4986497;28;20047;-70
2023/04/26 12:02:10;;;;;;;1.92;0.30;;;20.00;56.40;;;;;;4981326;28;20141;-69
2023/04/26 12:04:38;;;;;;;1.38;0.20;;;20.00;56.30;;;;;;4987958;28;20050;-70
2023/04/26 12:07:07;;;;;;;1.17;0.20;;;20.00;56.40;;;;;;4985160;28;20116;-70
2023/04/26 12:09:40;;;;;;;0.80;0.22;;;19.90;56.40;;;;;;4987576;28;20614;-70
2023/04/26 12:12:07;;;;;;;1.27;0.30;;;19.90;56.40;;;;;;4985282;28;20042;-69
2023/04/26 12:14:36;;;;;;;1.05;0.20;;;19.90;56.40;;;;;;4988273;28;20117;-71
2023/04/26 12:17:05;;;;;;;0.93;0.10;;;19.90;56.50;;;;;;4988598;28;20480;-69
2023/04/26 12:19:33;;;;;;;1.55;0.30;;;19.90;56.50;;;;;;4986320;28;20054;-70
2023/04/26 12:22:00;;;;;;;0.60;0.10;;;19.90;56.50;;;;;;4988912;28;20050;-70
2023/04/26 12:24:29;;;;;;;1.00;0.20;;;19.90;56.50;;;;;;4993921;28;20487;-70
2023/04/26 12:26:57;;;;;;;1.13;0.20;;;19.80;56.50;;;;;;4986775;28;20047;-70
2023/04/26 12:29:24;;;;;;;1.17;0.22;;;19.80;56.40;;;;;;4986988;28;20054;-69
2023/04/26 12:31:51;;;;;;;1.13;0.20;;;19.80;56.50;;;;;;4979989;28;20047;-70
2023/04/26 12:34:18;;;;;;;1.52;0.20;;;19.80;56.40;;;;;;4986939;28;20054;-70
2023/04/26 12:36:45;;;;;;;2.13;0.28;;;19.80;56.50;;;;;;4989256;28;20688;-70
2023/04/26 12:39:14;;;;;;;1.33;0.20;;;19.80;56.40;;;;;;4978303;28;20483;-70
2023/04/26 12:41:41;;;;;;;2.38;0.38;;;19.80;57.10;;;;;;4988596;28;20056;-71
2023/04/26 12:44:10;;;;;;;1.40;0.22;;;19.80;56.50;;;;;;4984269;28;20054;-71
2023/04/26 12:46:37;;;;;;;1.27;0.20;;;19.80;56.50;;;;;;4986446;28;20039;-70
2023/04/26 12:49:04;;;;;;;2.05;0.20;;;19.80;56.50;;;;;;4984167;28;20050;-70
2023/04/26 12:51:32;;;;;;;0.93;0.10;;;19.80;56.50;;;;;;4986277;28;20066;-70
2023/04/26 12:53:59;;;;;;;0.68;0.13;;;19.80;56.50;;;;;;4987529;28;20038;-70
2023/04/26 12:56:26;;;;;;;1.25;0.50;;;19.80;56.40;;;;;;4988205;28;20076;-70
2023/04/26 12:58:53;;;;;;;1.13;0.10;;;19.80;57.20;;;;;;4992537;28;20084;-70
2023/04/26 13:01:21;;;;;;;2.55;0.20;;;19.80;56.40;;;;;;4978712;28;20476;-69